Time;durP1;ratioP1;P1;durP2;ratioP2;P2;SDS_P1;SDS_P2;PMS_P1;PMS_P2;Temp;Humidity;BMP_temperature;BMP_pressure;BME280_temperature;BME280_humidity;BME280_pressure;Samples;Min_cycle;Max_cycle;Signal;HPM_P1;HPM_P2
2022/08/03 00:02:19;;;;;;;1.60;1.40;;;;;;;18.17;75.96;98843.16;104542;1277;75988;-23
2022/08/03 00:04:46;;;;;;;1.40;1.30;;;;;;;18.13;75.98;98846.70;104578;1275;75337;-24
2022/08/03 00:07:14;;;;;;;1.70;1.40;;;;;;;17.84;77.03;98840.95;104896;1274;62194;-24
2022/08/03 00:09:41;;;;;;;2.40;1.30;;;;;;;17.52;78.62;98839.95;104865;1274;61172;-24
2022/08/03 00:12:09;;;;;;;1.80;1.10;;;;;;;17.44;78.94;98846.50;104861;1274;74824;-24
2022/08/03 00:14:36;;;;;;;1.40;1.20;;;;;;;17.89;77.44;98849.58;104849;1274;76951;-24
2022/08/03 00:17:03;;;;;;;2.30;1.10;;;;;;;18.21;75.82;98849.58;104645;1272;75706;-24
2022/08/03 00:19:30;;;;;;;1.40;1.30;;;;;;;18.09;75.85;98849.42;104353;1277;62111;-23
2022/08/03 00:21:58;;;;;;;2.30;1.30;;;;;;;17.88;76.70;98844.42;104598;1274;61114;-24
2022/08/03 00:24:25;;;;;;;2.90;1.50;;;;;;;17.65;77.44;98844.95;104618;1275;75836;-24
2022/08/03 00:26:53;;;;;;;4.40;1.50;;;;;;;17.49;78.28;98844.16;104697;1274;77037;-23
2022/08/03 00:29:22;;;;;;;2.70;1.30;;;;;;;17.63;78.09;98847.81;104821;1274;74162;-24
2022/08/03 00:31:50;;;;;;;8.00;1.60;;;;;;;17.89;76.98;98850.30;104848;1274;61968;-24
2022/08/03 00:34:26;;;;;;;1.80;1.20;;;;;;;17.80;77.35;98851.83;104835;1274;63001;-24
2022/08/03 00:37:02;;;;;;;1.50;1.30;;;;;;;17.56;78.32;98846.83;104733;1274;74756;-23
2022/08/03 00:39:29;;;;;;;2.00;1.30;;;;;;;17.27;79.72;98853.23;104669;1274;77341;-23
2022/08/03 00:42:01;;;;;;;1.90;1.50;;;;;;;17.15;80.20;98856.33;104784;1275;75253;-25
2022/08/03 00:44:29;;;;;;;2.10;1.30;;;;;;;17.54;78.86;98857.80;104677;1277;61981;-23
2022/08/03 00:46:56;;;;;;;3.60;1.50;;;;;;;17.86;77.45;98853.61;104607;1274;62862;-24
2022/08/03 00:49:26;;;;;;;1.60;1.50;;;;;;;17.74;77.55;98854.27;104734;1275;74812;-24
2022/08/03 00:51:54;;;;;;;1.60;1.50;;;;;;;17.55;78.26;98853.23;104534;1274;75835;-24
2022/08/03 00:54:22;;;;;;;1.80;1.60;;;;;;;17.33;79.05;98856.42;104609;1274;75525;-24
2022/08/03 00:56:50;;;;;;;1.70;1.20;;;;;;;17.14;80.26;98858.49;104669;1274;64678;-24
2022/08/03 00:59:26;;;;;;;3.50;1.30;;;;;;;17.54;78.80;98856.35;104621;1274;62768;-24
2022/08/03 01:01:53;;;;;;;2.50;1.50;;;;;;;17.84;77.37;98861.02;104442;1275;75849;-24
2022/08/03 01:04:21;;;;;;;3.50;1.40;;;;;;;17.71;77.67;98858.47;104580;1275;75133;-24
2022/08/03 01:07:01;;;;;;;5.20;1.60;;;;;;;17.43;78.84;98860.94;104663;1278;74335;-24
2022/08/03 01:09:58;;;;;;;3.10;1.40;;;;;;;17.14;79.89;98862.01;104601;1274;61137;-24
2022/08/03 01:13:00;;;;;;;1.30;1.20;;;;;;;17.27;79.78;98861.65;104356;1275;62039;-24
2022/08/03 01:15:28;;;;;;;2.80;1.50;;;;;;;17.63;78.19;98856.89;104566;1275;75585;-24
2022/08/03 01:18:02;;;;;;;5.60;1.60;;;;;;;17.64;78.05;98859.20;104708;1274;77757;-24
2022/08/03 01:20:32;;;;;;;1.70;1.30;;;;;;;17.50;78.55;98855.69;104639;1275;74424;-24
2022/08/03 01:23:03;;;;;;;1.20;1.00;;;;;;;17.32;79.47;98857.58;104421;1280;64439;-23
2022/08/03 01:25:49;;;;;;;2.20;1.30;;;;;;;17.63;78.64;98860.96;104662;1275;61307;-24
2022/08/03 01:28:57;;;;;;;1.90;1.20;;;;;;;17.98;77.04;98860.69;104432;1275;74485;-24
2022/08/03 01:31:27;;;;;;;2.40;1.30;;;;;;;17.85;77.43;98859.80;104665;1275;77309;-23
2022/08/03 01:33:58;;;;;;;1.80;1.30;;;;;;;17.72;78.01;98860.50;104727;1277;74848;-23
2022/08/03 01:36:29;;;;;;;1.80;1.20;;;;;;;17.54;78.75;98859.84;104572;1274;63617;-24
2022/08/03 01:39:00;;;;;;;1.50;1.10;;;;;;;17.90;77.83;98859.51;104715;1274;61288;-24
2022/08/03 01:41:41;;;;;;;5.00;1.30;;;;;;;18.15;76.44;98858.00;104633;1275;76703;-24
2022/08/03 01:44:09;;;;;;;2.50;1.30;;;;;;;17.99;77.10;98854.59;104708;1275;77019;-24
2022/08/03 01:47:00;;;;;;;5.30;1.50;;;;;;;17.81;77.81;98854.52;104614;1274;75766;-24
2022/08/03 01:49:29;;;;;;;1.80;1.40;;;;;;;17.55;78.75;98849.58;104421;1275;61725;-24
2022/08/03 01:51:56;;;;;;;3.00;1.00;;;;;;;17.49;79.37;98847.64;104537;1277;63043;-23
2022/08/03 01:54:39;;;;;;;1.40;1.10;;;;;;;17.91;77.89;98843.19;104586;1275;76316;-24
2022/08/03 01:57:06;;;;;;;2.90;1.30;;;;;;;18.19;76.42;98844.20;104583;1275;76946;-24
2022/08/03 01:59:34;;;;;;;2.60;1.30;;;;;;;18.06;76.64;98848.99;104475;1275;75771;-24
2022/08/03 02:02:03;;;;;;;2.80;1.20;;;;;;;17.83;77.51;98853.25;104337;1274;61857;-24
2022/08/03 02:04:51;;;;;;;3.60;1.20;;;;;;;17.54;78.79;98848.07;104436;1274;61923;-24
2022/08/03 02:07:19;;;;;;;1.60;1.00;;;;;;;17.38;79.75;98848.73;104348;1280;76434;-24
2022/08/03 02:09:52;;;;;;;2.20;0.90;;;;;;;17.82;78.37;98851.90;104521;1274;77030;-24
2022/08/03 02:12:21;;;;;;;1.70;1.20;;;;;;;18.22;76.37;98849.64;104697;1275;75519;-24
2022/08/03 02:14:48;;;;;;;1.60;1.10;;;;;;;18.21;76.00;98845.41;104632;1277;62039;-24
2022/08/03 02:17:16;;;;;;;1.30;1.10;;;;;;;18.02;76.38;98848.83;104591;1274;63034;-24
2022/08/03 02:19:43;;;;;;;1.70;1.40;;;;;;;17.70;77.56;98846.79;104652;1274;75494;-24
2022/08/03 02:22:11;;;;;;;3.10;0.90;;;;;;;17.39;79.35;98849.64;104255;1274;77396;-24
2022/08/03 02:24:39;;;;;;;1.20;1.10;;;;;;;17.57;78.82;98854.63;104508;1274;75311;-24
2022/08/03 02:27:17;;;;;;;2.10;1.20;;;;;;;17.74;78.17;98853.73;104557;1275;61145;-24
2022/08/03 02:29:46;;;;;;;4.00;1.20;;;;;;;17.66;78.35;98850.42;104553;1277;62148;-24
2022/08/03 02:32:16;;;;;;;1.90;1.50;;;;;;;17.49;78.68;98852.52;104454;1277;76757;-24
2022/08/03 02:34:46;;;;;;;3.00;1.50;;;;;;;17.28;79.45;98856.77;104379;1274;75959;-24
2022/08/03 02:37:13;;;;;;;2.30;1.60;;;;;;;17.00;81.46;98855.63;104656;1275;74386;-24
2022/08/03 02:39:41;;;;;;;2.20;1.90;;;;;;;17.34;80.41;98856.48;104506;1275;61070;-24
2022/08/03 02:42:09;;;;;;;3.70;1.80;;;;;;;17.64;78.77;98852.34;104632;1275;62026;-24
2022/08/03 02:44:38;;;;;;;2.00;1.70;;;;;;;17.61;78.49;98849.93;104453;1274;76601;-24
2022/08/03 02:47:08;;;;;;;1.90;1.70;;;;;;;17.38;79.24;98852.59;104645;1274;76959;-24
2022/08/03 02:49:35;;;;;;;3.60;1.20;;;;;;;17.19;79.99;98852.89;104838;1274;75236;-24
2022/08/03 02:52:20;;;;;;;3.50;1.20;;;;;;;17.51;79.28;98855.81;104812;1274;61088;-24
2022/08/03 02:54:51;;;;;;;1.80;1.20;;;;;;;17.76;78.16;98856.69;104717;1275;63002;-24
2022/08/03 02:57:19;;;;;;;1.90;1.20;;;;;;;17.68;78.12;98850.00;104457;1274;76620;-24
2022/08/03 02:59:46;;;;;;;3.70;1.60;;;;;;;17.42;78.98;98849.58;104658;1274;74964;-24
2022/08/03 03:02:15;;;;;;;2.50;1.80;;;;;;;17.13;80.45;98850.29;104589;1277;75388;-24
2022/08/03 03:04:43;;;;;;;4.20;1.60;;;;;;;16.90;81.93;98847.60;104737;1272;62065;-24
2022/08/03 03:07:31;;;;;;;3.20;1.50;;;;;;;17.34;80.24;98842.67;104723;1271;63026;-24
2022/08/03 03:10:20;;;;;;;3.10;1.50;;;;;;;17.40;79.72;98840.70;104708;1271;74561;-24
2022/08/03 03:12:51;;;;;;;2.60;1.70;;;;;;;17.23;80.52;98839.23;104664;1271;75931;-24
2022/08/03 03:15:18;;;;;;;1.40;1.30;;;;;;;17.02;81.63;98842.64;104621;1271;74426;-24
2022/08/03 03:17:47;;;;;;;1.70;1.40;;;;;;;16.94;82.18;98847.52;104776;1271;63335;-24
2022/08/03 03:20:14;;;;;;;1.50;1.40;;;;;;;17.34;80.61;98849.23;104923;1272;61064;-24
2022/08/03 03:22:57;;;;;;;3.70;1.60;;;;;;;17.61;79.27;98852.39;104638;1271;75568;-24
2022/08/03 03:25:25;;;;;;;1.80;1.20;;;;;;;17.62;79.02;98854.33;104695;1271;75021;-24
2022/08/03 03:27:53;;;;;;;5.00;1.70;;;;;;;17.46;79.50;98850.42;104728;1271;75435;-24
2022/08/03 03:30:20;;;;;;;2.90;1.50;;;;;;;17.23;80.59;98857.07;104831;1272;62061;-24
2022/08/03 03:32:47;;;;;;;7.40;1.30;;;;;;;17.24;81.14;98856.56;104787;1271;61846;-25
2022/08/03 03:35:18;;;;;;;3.00;1.60;;;;;;;17.62;79.21;98851.76;104676;1271;75417;-24
2022/08/03 03:37:45;;;;;;;1.80;1.50;;;;;;;17.73;78.92;98850.65;104822;1271;77491;-24
2022/08/03 03:40:13;;;;;;;1.60;1.50;;;;;;;17.64;79.14;98848.69;104772;1271;75827;-24
2022/08/03 03:42:40;;;;;;;2.00;1.60;;;;;;;17.35;80.40;98853.05;104820;1271;61356;-24
2022/08/03 03:45:08;;;;;;;4.60;1.20;;;;;;;17.25;81.04;98860.41;104622;1271;62054;-24
2022/08/03 03:47:36;;;;;;;2.10;1.10;;;;;;;17.82;79.26;98869.45;104744;1271;75372;-24
2022/08/03 03:50:06;;;;;;;5.70;1.40;;;;;;;18.33;76.96;98872.70;104684;1271;77005;-24
2022/08/03 03:52:33;;;;;;;6.30;1.50;;;;;;;18.36;76.40;98869.47;104673;1271;75346;-24
2022/08/03 03:55:01;;;;;;;1.50;1.40;;;;;;;18.14;77.11;98877.45;104761;1272;61194;-24
2022/08/03 03:57:28;;;;;;;1.60;1.40;;;;;;;17.93;77.84;98875.76;104896;1271;61518;-24
2022/08/03 03:59:55;;;;;;;2.80;1.10;;;;;;;17.79;78.67;98872.80;104726;1272;75363;-24
2022/08/03 04:02:23;;;;;;;1.80;0.90;;;;;;;18.20;77.53;98876.36;104803;1271;76880;-24
2022/08/03 04:11:12;;;;;;;1.90;1.20;;;;;;;18.11;77.27;98882.05;104858;1271;63250;-24
2022/08/03 04:14:00;;;;;;;2.40;1.60;;;;;;;17.95;77.80;98880.98;104735;1271;76847;-24
2022/08/03 04:16:30;;;;;;;1.70;0.90;;;;;;;17.81;78.61;98882.92;104703;1272;76895;-24
2022/08/03 04:19:04;;;;;;;1.30;1.20;;;;;;;18.25;77.09;98879.12;104882;1274;75984;-24
2022/08/03 04:21:32;;;;;;;9.50;1.60;;;;;;;18.57;75.67;98881.41;104777;1271;61828;-24
2022/08/03 04:24:01;;;;;;;5.00;1.50;;;;;;;18.59;75.53;98881.36;104809;1271;61275;-24
2022/08/03 04:26:33;;;;;;;1.70;1.20;;;;;;;18.34;76.25;98882.34;104782;1272;76644;-24
2022/08/03 04:29:00;;;;;;;3.60;2.50;;;;;;;18.15;77.07;98889.63;104703;1272;76774;-24
2022/08/03 04:31:28;;;;;;;3.70;1.20;;;;;;;17.85;78.31;98890.95;104972;1271;74970;-24
2022/08/03 04:33:55;;;;;;;3.80;1.40;;;;;;;18.20;77.30;98896.40;105012;1271;63113;-24
2022/08/03 04:36:26;;;;;;;1.70;1.40;;;;;;;18.60;75.65;98894.96;104918;1271;62885;-24
2022/08/03 04:38:58;;;;;;;4.80;1.80;;;;;;;18.51;75.58;98893.77;104927;1271;76838;-24
2022/08/03 04:41:25;;;;;;;1.70;1.50;;;;;;;18.30;76.34;98894.40;104556;1271;75175;-24
2022/08/03 04:43:57;;;;;;;3.50;1.90;;;;;;;18.12;77.42;98891.68;105136;1271;75456;-24
2022/08/03 04:46:26;;;;;;;3.40;1.40;;;;;;;17.96;78.21;98894.04;104745;1271;64455;-24
2022/08/03 04:48:54;;;;;;;6.60;1.60;;;;;;;18.30;77.42;98891.10;104821;1271;63186;-24
2022/08/03 04:51:22;;;;;;;3.20;1.50;;;;;;;18.63;76.04;98888.27;104716;1271;76419;-24
2022/08/03 04:53:49;;;;;;;3.90;1.60;;;;;;;18.59;75.81;98885.65;104709;1274;76931;-24
2022/08/03 04:56:17;;;;;;;3.30;1.80;;;;;;;18.45;76.54;98889.67;104817;1271;75111;-24
2022/08/03 04:58:44;;;;;;;1.80;1.60;;;;;;;18.23;77.29;98891.73;104818;1271;63198;-24
2022/08/03 05:01:11;;;;;;;1.10;1.00;;;;;;;18.17;77.81;98891.31;104704;1271;63155;-24
2022/08/03 05:03:39;;;;;;;4.90;1.60;;;;;;;18.52;76.74;98894.80;104773;1271;75450;-24
2022/08/03 05:06:06;;;;;;;1.80;1.50;;;;;;;18.91;75.30;98896.44;104738;1271;75975;-24
2022/08/03 05:08:37;;;;;;;3.30;1.60;;;;;;;18.94;75.06;98898.55;104820;1271;75400;-25
2022/08/03 05:11:15;;;;;;;4.90;1.70;;;;;;;18.79;75.62;98897.29;104644;1271;61256;-24
2022/08/03 05:13:43;;;;;;;3.40;2.00;;;;;;;18.67;76.38;98898.39;104968;1271;62066;-24
2022/08/03 05:16:12;;;;;;;3.80;1.50;;;;;;;18.60;76.75;98897.10;104742;1272;76454;-24
2022/08/03 05:18:43;;;;;;;3.30;1.70;;;;;;;18.95;76.21;98900.33;104746;1271;76793;-24
2022/08/03 05:21:13;;;;;;;4.30;1.80;;;;;;;19.34;74.20;98903.48;104863;1271;75146;-25
2022/08/03 05:23:40;;;;;;;1.80;1.60;;;;;;;19.40;73.68;98905.38;105032;1271;61121;-24
2022/08/03 05:26:10;;;;;;;6.20;2.00;;;;;;;19.19;74.47;98906.47;105053;1271;61923;-24
2022/08/03 05:28:38;;;;;;;2.10;1.90;;;;;;;19.05;75.45;98908.09;104951;1271;76666;-24
2022/08/03 05:31:17;;;;;;;3.70;1.80;;;;;;;18.85;76.11;98905.94;104679;1271;77005;-24
2022/08/03 05:33:48;;;;;;;2.60;1.40;;;;;;;18.91;75.85;98904.12;104646;1271;75653;-24
2022/08/03 05:36:15;;;;;;;3.10;1.70;;;;;;;19.41;74.15;98903.70;104909;1271;61236;-24
2022/08/03 05:38:42;;;;;;;4.30;2.10;;;;;;;19.64;73.20;98914.73;104841;1272;61652;-24
2022/08/03 05:41:10;;;;;;;3.30;2.30;;;;;;;19.60;73.13;98918.66;105021;1271;75560;-24
2022/08/03 05:43:53;;;;;;;4.00;2.10;;;;;;;19.34;74.21;98922.89;105059;1271;75275;-24
2022/08/03 05:46:21;;;;;;;2.90;2.00;;;;;;;19.10;74.77;98921.86;104642;1271;75252;-24
2022/08/03 05:48:48;;;;;;;20.10;2.90;;;;;;;18.89;75.31;98924.33;104621;1272;64744;-24
2022/08/03 05:51:16;;;;;;;2.20;1.90;;;;;;;19.24;74.94;98925.65;104883;1271;62731;-24
2022/08/03 05:53:43;;;;;;;5.00;1.90;;;;;;;19.40;73.54;98927.70;104771;1271;75573;-24
2022/08/03 05:56:11;;;;;;;4.40;1.40;;;;;;;19.39;73.60;98933.67;104854;1271;77509;-24
2022/08/03 05:58:43;;;;;;;4.40;1.60;;;;;;;19.26;74.04;98931.77;105084;1271;75378;-24
2022/08/03 06:01:22;;;;;;;1.90;1.60;;;;;;;19.08;74.71;98932.63;104649;1271;63129;-24
2022/08/03 06:03:50;;;;;;;8.80;1.90;;;;;;;18.92;75.71;98936.20;104870;1271;61796;-24
2022/08/03 06:06:18;;;;;;;2.90;1.40;;;;;;;19.26;74.28;98938.19;104943;1271;76307;-24
2022/08/03 06:08:45;;;;;;;5.50;1.50;;;;;;;19.51;73.05;98945.46;105072;1271;76910;-24
2022/08/03 06:11:13;;;;;;;7.20;2.00;;;;;;;19.18;73.77;98945.83;104904;1271;74318;-24
2022/08/03 06:13:40;;;;;;;4.50;2.00;;;;;;;18.90;75.04;98941.27;104916;1271;63086;-24
2022/08/03 06:16:09;;;;;;;3.50;1.80;;;;;;;18.77;75.58;98945.90;104926;1271;62862;-24
2022/08/03 06:18:37;;;;;;;2.70;1.80;;;;;;;18.71;75.85;98950.52;104954;1271;76599;-24
2022/08/03 06:21:04;;;;;;;1.80;1.30;;;;;;;18.74;76.05;98956.81;104700;1271;75919;-24
2022/08/03 06:23:43;;;;;;;11.00;2.90;;;;;;;19.34;73.85;98952.21;104721;1271;75133;-24
2022/08/03 06:26:25;;;;;;;3.50;1.70;;;;;;;19.27;73.51;98946.00;104836;1271;63058;-24
2022/08/03 06:28:53;;;;;;;3.40;1.90;;;;;;;19.27;73.65;98941.85;104808;1271;61261;-24
2022/08/03 06:31:26;;;;;;;4.70;1.80;;;;;;;19.08;74.17;98950.02;104834;1271;75444;-24
2022/08/03 06:34:01;;;;;;;5.50;2.10;;;;;;;18.92;75.30;98949.33;104669;1271;77012;-24
2022/08/03 06:36:49;;;;;;;1.90;1.20;;;;;;;18.80;75.69;98948.42;104765;1271;74330;-24
2022/08/03 06:39:18;;;;;;;2.10;1.60;;;;;;;18.90;75.71;98949.99;104875;1271;63552;-24
2022/08/03 06:41:46;;;;;;;2.30;1.60;;;;;;;19.36;73.42;98953.90;105098;1271;63059;-24
2022/08/03 06:44:13;;;;;;;4.50;1.50;;;;;;;19.48;73.14;98954.40;105054;1271;76842;-24
2022/08/03 06:46:42;;;;;;;2.00;1.40;;;;;;;19.22;73.70;98947.52;104765;1271;77112;-24
2022/08/03 06:49:12;;;;;;;1.80;1.40;;;;;;;19.14;74.57;98948.35;104871;1271;74636;-24
2022/08/03 06:51:39;;;;;;;1.70;1.60;;;;;;;19.07;74.71;98951.45;105011;1271;63052;-24
2022/08/03 06:54:27;;;;;;;2.20;1.50;;;;;;;19.15;74.12;98949.34;104865;1271;63099;-24
2022/08/03 06:56:58;;;;;;;2.10;1.70;;;;;;;19.63;72.43;98945.30;104905;1271;76552;-24
2022/08/03 06:59:26;;;;;;;2.20;1.50;;;;;;;19.78;71.45;98943.66;104815;1271;77258;-24
2022/08/03 07:02:13;;;;;;;11.50;1.70;;;;;;;19.92;71.33;98946.20;104865;1271;75114;-24
2022/08/03 07:04:47;;;;;;;1.80;1.50;;;;;;;19.93;71.59;98947.88;104772;1271;61132;-24
2022/08/03 07:07:14;;;;;;;1.90;1.20;;;;;;;19.81;71.85;98951.89;104834;1271;61698;-24
2022/08/03 07:09:41;;;;;;;1.90;1.50;;;;;;;19.80;71.87;98950.86;105064;1271;75546;-24
2022/08/03 07:12:25;;;;;;;6.20;2.30;;;;;;;19.86;71.67;98952.55;104833;1271;75844;-24
2022/08/03 07:14:52;;;;;;;3.80;2.40;;;;;;;20.36;69.76;98952.08;104643;1270;75422;-24
2022/08/03 07:17:26;;;;;;;3.10;2.30;;;;;;;20.67;68.78;98959.14;104771;1271;63067;-24
2022/08/03 07:19:54;;;;;;;4.10;2.40;;;;;;;20.81;68.28;98958.20;105071;1271;63006;-25
2022/08/03 07:22:21;;;;;;;5.90;2.20;;;;;;;20.66;68.90;98952.42;104886;1271;75511;-24
2022/08/03 07:24:48;;;;;;;4.00;2.30;;;;;;;20.67;69.17;98952.70;104829;1271;77034;-24
2022/08/03 07:27:16;;;;;;;7.90;2.20;;;;;;;20.36;69.39;98953.27;104747;1271;74286;-24
2022/08/03 07:29:43;;;;;;;3.80;2.20;;;;;;;20.20;70.18;98954.39;104842;1271;62831;-24
2022/08/03 07:32:10;;;;;;;8.50;2.70;;;;;;;20.39;70.16;98955.96;104685;1271;62875;-24
2022/08/03 07:34:37;;;;;;;3.70;2.00;;;;;;;20.53;70.21;98964.94;104808;1271;76609;-24
2022/08/03 07:37:05;;;;;;;5.70;2.10;;;;;;;21.12;68.45;98965.80;104882;1271;77156;-24
2022/08/03 07:39:32;;;;;;;3.50;2.20;;;;;;;21.49;66.16;98961.38;104761;1271;74242;-24
2022/08/03 07:42:02;;;;;;;3.70;1.90;;;;;;;21.29;66.37;98962.91;104772;1272;61038;-24
2022/08/03 07:44:30;;;;;;;2.80;2.10;;;;;;;21.29;66.79;98967.03;104920;1271;63007;-24
2022/08/03 07:46:57;;;;;;;6.10;2.30;;;;;;;21.31;66.87;98971.70;104630;1271;76566;-25
2022/08/03 07:49:29;;;;;;;6.90;1.80;;;;;;;21.33;67.10;98974.52;104840;1272;76046;-24
2022/08/03 07:54:43;;;;;;;3.70;2.10;;;;;;;21.19;66.68;98972.66;104734;1271;62318;-24
2022/08/03 07:57:10;;;;;;;3.50;1.60;;;;;;;21.09;67.37;98972.52;104749;1271;63025;-24
2022/08/03 07:59:38;;;;;;;4.80;1.80;;;;;;;21.20;67.03;98972.91;104866;1271;75981;-24
2022/08/03 08:02:26;;;;;;;5.10;1.70;;;;;;;21.39;66.98;98970.78;104937;1271;77068;-24
2022/08/03 08:04:53;;;;;;;7.40;1.30;;;;;;;21.65;66.92;98974.81;104911;1271;74348;-24
2022/08/03 08:07:22;;;;;;;2.80;1.50;;;;;;;21.66;65.94;98976.23;104851;1271;61698;-24
2022/08/03 08:09:49;;;;;;;6.00;1.60;;;;;;;21.56;66.15;98972.09;104872;1271;61721;-24
2022/08/03 08:12:19;;;;;;;3.30;1.70;;;;;;;21.37;66.27;98969.67;104856;1271;75449;-24
2022/08/03 08:14:46;;;;;;;4.60;1.70;;;;;;;21.47;66.40;98974.23;104910;1271;75177;-24
2022/08/03 08:17:14;;;;;;;2.70;1.40;;;;;;;21.53;66.34;98975.38;104877;1271;75371;-24
2022/08/03 08:19:41;;;;;;;4.40;1.60;;;;;;;21.68;66.01;98971.16;104866;1271;61908;-24
2022/08/03 08:22:18;;;;;;;4.90;1.90;;;;;;;21.73;66.04;98977.41;104912;1271;63014;-24
2022/08/03 08:24:58;;;;;;;5.40;1.70;;;;;;;21.99;66.04;98972.50;104898;1271;75281;-24
2022/08/03 08:27:27;;;;;;;2.10;1.70;;;;;;;22.13;65.16;98969.36;105168;1271;77388;-23
2022/08/03 08:30:17;;;;;;;9.60;2.30;;;;;;;22.18;64.82;98968.73;104860;1271;74188;-24
2022/08/03 08:32:46;;;;;;;2.90;2.30;;;;;;;22.48;63.94;98963.56;104739;1271;62083;-24
2022/08/03 08:35:13;;;;;;;9.30;2.20;;;;;;;22.39;63.33;98967.80;104647;1271;61806;-24
2022/08/03 08:37:42;;;;;;;5.70;2.00;;;;;;;22.24;63.71;98977.83;104822;1271;75736;-24
2022/08/03 08:40:19;;;;;;;13.60;2.50;;;;;;;22.36;63.25;98983.55;104779;1271;77379;-24
2022/08/03 08:42:46;;;;;;;3.80;1.90;;;;;;;22.51;63.70;98974.43;104793;1271;75396;-24
2022/08/03 08:45:25;;;;;;;4.00;2.30;;;;;;;22.49;62.85;98985.02;105058;1271;61826;-24
2022/08/03 08:47:52;;;;;;;2.50;2.20;;;;;;;22.70;63.65;98981.68;104921;1271;63048;-24
2022/08/03 08:50:26;;;;;;;3.90;2.30;;;;;;;22.72;62.50;98981.15;104791;1271;76516;-24
2022/08/03 08:52:54;;;;;;;8.20;2.60;;;;;;;22.82;62.64;98982.48;104761;1271;77008;-24
2022/08/03 08:55:22;;;;;;;6.90;2.10;;;;;;;22.63;62.43;98984.94;104704;1271;75402;-24
2022/08/03 08:57:52;;;;;;;6.80;2.60;;;;;;;22.36;63.46;98983.54;104854;1271;61128;-24
2022/08/03 09:00:20;;;;;;;5.10;2.10;;;;;;;22.37;64.03;98991.45;104927;1271;63429;-24
2022/08/03 09:02:47;;;;;;;2.60;2.00;;;;;;;22.61;62.90;98994.63;105164;1271;76531;-24
2022/08/03 09:05:17;;;;;;;18.50;2.80;;;;;;;22.61;62.14;98992.83;104672;1271;480443;-25
2022/08/03 09:07:45;;;;;;;3.40;1.90;;;;;;;22.78;62.67;98988.20;105015;1271;74072;-24
2022/08/03 09:10:13;;;;;;;3.80;1.70;;;;;;;22.80;62.39;98993.71;104798;1271;62819;-24
2022/08/03 09:12:41;;;;;;;14.40;2.30;;;;;;;22.92;61.59;98990.19;104620;1271;62957;-24
2022/08/03 09:15:31;;;;;;;2.10;1.90;;;;;;;23.07;61.58;98989.94;104693;1271;74620;-24
2022/08/03 09:17:59;;;;;;;2.00;1.80;;;;;;;23.10;59.78;98995.19;104665;1271;75229;-24
2022/08/03 09:20:32;;;;;;;3.50;1.90;;;;;;;23.22;59.47;98987.21;104640;1271;75246;-24
2022/08/03 09:23:03;;;;;;;4.80;2.40;;;;;;;23.26;59.88;98991.13;104747;1271;62799;-24
2022/08/03 09:25:50;;;;;;;3.10;1.70;;;;;;;23.86;57.76;98996.55;104735;1271;62636;-24
2022/08/03 09:28:17;;;;;;;2.40;2.00;;;;;;;24.01;57.98;98992.43;104711;1271;75474;-24
2022/08/03 09:31:05;;;;;;;5.30;2.10;;;;;;;24.19;57.57;98992.23;104778;1271;75208;-24
2022/08/03 09:33:32;;;;;;;2.80;1.80;;;;;;;23.84;58.42;98999.46;104721;1271;75121;-24
2022/08/03 09:36:02;;;;;;;3.10;1.80;;;;;;;23.31;59.37;98997.66;104759;1271;63092;-24
2022/08/03 09:38:29;;;;;;;2.90;1.80;;;;;;;23.09;60.01;99003.41;104818;1271;61223;-24
2022/08/03 09:40:57;;;;;;;3.30;2.00;;;;;;;22.90;60.46;98998.27;104959;1271;75660;-24
2022/08/03 09:43:27;;;;;;;4.40;1.80;;;;;;;22.82;61.25;98997.39;104812;1272;76775;-24
2022/08/03 09:46:02;;;;;;;2.80;1.80;;;;;;;22.60;62.03;98992.24;104776;1271;75391;-24
2022/08/03 09:48:32;;;;;;;4.00;2.30;;;;;;;22.56;62.03;98995.84;104695;1271;62507;-24
2022/08/03 09:51:00;;;;;;;4.00;1.70;;;;;;;22.48;62.35;99000.94;104671;1271;61964;-24
2022/08/03 09:53:47;;;;;;;3.10;1.70;;;;;;;22.42;62.56;99000.95;104780;1274;75579;-24
2022/08/03 09:56:42;;;;;;;1.80;1.70;;;;;;;22.41;63.09;99000.08;104870;1274;76063;-24
2022/08/03 09:59:10;;;;;;;3.60;1.90;;;;;;;22.51;62.99;99005.21;104893;1274;75188;-24
2022/08/03 10:01:40;;;;;;;5.70;1.90;;;;;;;22.54;62.69;99000.38;104548;1271;63394;-24
2022/08/03 10:04:13;;;;;;;3.00;1.50;;;;;;;22.48;62.98;98994.34;104691;1274;61126;-24
2022/08/03 10:06:42;;;;;;;;;;;;;;;22.46;63.34;99004.21;104528;1274;75599;-24
2022/08/03 10:09:14;;;;;;;2.90;2.00;;;;;;;22.63;62.88;98996.70;104637;1274;75933;-24
2022/08/03 10:11:42;;;;;;;7.00;2.20;;;;;;;22.62;62.18;98996.78;104661;1271;75475;-24
2022/08/03 10:14:17;;;;;;;3.10;2.20;;;;;;;22.67;62.61;99001.64;104749;1271;61967;-24
2022/08/03 10:16:46;;;;;;;3.30;1.80;;;;;;;22.86;61.66;99001.59;104686;1274;61170;-24
2022/08/03 10:19:14;;;;;;;4.20;1.90;;;;;;;22.92;61.60;99002.88;104775;1271;76555;-24
2022/08/03 10:21:54;;;;;;;3.00;1.80;;;;;;;22.76;61.13;98997.07;104612;1271;75918;-24
2022/08/03 10:24:26;;;;;;;5.30;1.90;;;;;;;22.77;61.68;98999.76;105061;1274;75885;-24
2022/08/03 10:26:59;;;;;;;4.90;2.40;;;;;;;22.68;61.74;99001.48;104626;1274;62048;-24
2022/08/03 10:29:28;;;;;;;2.20;1.90;;;;;;;22.77;61.43;99000.90;104891;1274;63031;-25
2022/08/03 10:31:57;;;;;;;4.50;2.00;;;;;;;22.78;61.37;99001.77;104719;1274;76558;-24
2022/08/03 10:34:26;;;;;;;4.90;1.80;;;;;;;22.76;62.49;99002.00;104383;1274;77093;-24
2022/08/03 10:36:56;;;;;;;10.30;2.20;;;;;;;22.61;62.59;99007.40;104626;1271;74166;-24
2022/08/03 10:39:26;;;;;;;2.30;1.60;;;;;;;22.72;62.32;99002.73;104678;1272;61948;-24
2022/08/03 10:41:57;;;;;;;2.40;1.70;;;;;;;22.72;62.27;99008.17;104394;1271;63043;-24
2022/08/03 10:44:32;;;;;;;3.70;1.90;;;;;;;22.75;61.09;99010.33;104630;1271;76480;-24
2022/08/03 10:47:00;;;;;;;2.70;1.70;;;;;;;22.72;60.78;99007.32;104658;1274;77311;-24
2022/08/03 10:49:27;;;;;;;2.80;2.00;;;;;;;22.81;61.03;99008.16;104834;1272;74267;-24
2022/08/03 10:52:02;;;;;;;2.60;1.70;;;;;;;22.95;61.47;99008.48;104758;1272;62965;-24
2022/08/03 10:57:49;;;;;;;2.60;1.70;;;;;;;23.02;60.81;99005.63;105135;1271;76545;-24
2022/08/03 11:00:25;;;;;;;4.80;1.60;;;;;;;23.14;60.40;99007.92;105108;1271;76342;-24
2022/08/03 11:03:00;;;;;;;2.70;1.50;;;;;;;23.21;59.92;99000.62;104799;1271;74282;-25
2022/08/03 11:05:28;;;;;;;2.50;1.60;;;;;;;23.31;59.72;99003.71;104752;1271;62052;-24
2022/08/03 11:08:18;;;;;;;1.90;1.50;;;;;;;23.29;59.96;98998.29;104635;1271;61685;-24
2022/08/03 11:10:46;;;;;;;4.40;1.80;;;;;;;23.34;59.78;98994.34;104901;1272;76495;-24
2022/08/03 11:13:15;;;;;;;2.90;1.70;;;;;;;23.24;59.90;98993.51;105119;1271;77119;-25
2022/08/03 11:15:45;;;;;;;2.10;1.70;;;;;;;23.53;59.75;98991.40;104859;1271;75209;-24
2022/08/03 11:18:14;;;;;;;2.80;1.40;;;;;;;23.69;59.89;98986.83;104835;1271;62010;-24
2022/08/03 11:20:58;;;;;;;2.40;1.60;;;;;;;23.73;59.87;98986.56;104796;1271;62314;-24
2022/08/03 11:23:46;;;;;;;6.00;1.60;;;;;;;23.85;59.00;98987.19;104690;1271;74973;-24
2022/08/03 11:26:32;;;;;;;3.70;1.70;;;;;;;24.20;59.30;98984.70;104669;1271;76981;-24
2022/08/03 11:29:26;;;;;;;5.60;1.70;;;;;;;24.28;57.27;98978.91;104700;1271;74349;-24
2022/08/03 11:31:54;;;;;;;3.40;1.70;;;;;;;24.36;57.30;98980.16;105025;1270;61749;-24
2022/08/03 11:34:23;;;;;;;2.00;1.50;;;;;;;24.62;57.40;98977.30;104914;1271;62710;-24
2022/08/03 11:37:20;;;;;;;3.80;1.90;;;;;;;24.48;57.04;98973.14;104714;1271;76711;-24
2022/08/03 11:39:51;;;;;;;2.80;1.50;;;;;;;24.65;56.96;98978.19;105061;1271;76991;-24
2022/08/03 11:42:23;;;;;;;3.10;1.50;;;;;;;24.80;56.00;98977.08;104705;1271;74307;-24
2022/08/03 11:45:00;;;;;;;1.80;1.70;;;;;;;24.78;55.87;98969.23;105126;1271;61467;-24
2022/08/03 11:47:28;;;;;;;5.80;1.70;;;;;;;24.72;55.60;98970.95;105146;1271;63110;-24
2022/08/03 11:49:58;;;;;;;3.40;1.40;;;;;;;24.83;54.66;98965.13;104907;1272;76614;-24
2022/08/03 11:52:26;;;;;;;1.40;1.30;;;;;;;25.13;54.57;98964.82;104798;1271;77378;-24
2022/08/03 11:54:55;;;;;;;5.70;1.70;;;;;;;25.39;54.20;98953.19;105047;1271;74732;-24
2022/08/03 11:57:33;;;;;;;6.20;1.60;;;;;;;25.36;54.38;98953.05;105117;1271;61035;-24